Main page
METAR-TAF:

METAR-TAF

Airports :

Chièvres Air Base

Chièvres, Belgium

latitude: 50-34N, longitude: 003-50E, elevation: 60 m

Current weather observation

The report was made 30 minutes ago, at 22:55 UTC
Wind 4 kt from the East/Northeast
Temperature 12°C
Humidity 67%
Pressure 1001 hPa
Visibility 10 km or more

METAR: EBCV 222255Z AUTO 07004KT 9999 NCD 12/06 Q1001 BLU

Time: 01:25 (23:25 UTC)

Forecast

The report was made 7 hours and 44 minutes ago, at 15:41 UTC
Forecast valid from 22 at 19 UTC to 23 at 07 UTC
Wind 8 kt from the East
Visibility 10 km or more
Few clouds at a height of 22000 ft

TAF: EBCV 221541Z 2219/2307 08008KT 9999 FEW220 BY EBWM

Weather observations and forecasts of more than 4000 airports (METAR and TAF reports).

The available stations are represented by yellow and red dots on the map.

Hover mouse over dot to see the name of the station.

Then click to see weather observations and forecasts.

To change the map : click on the green buttons with a black cross to zoom in, on the green button with a dash to zoom out, or on the green arrows for adjacent maps.


METAR-TAF: